createdAt,value
2023-05-04T06:35:24.850Z,14.64
2023-05-04T06:50:27.038Z,15.73
2023-05-04T07:05:28.768Z,16.65
2023-05-04T07:20:30.374Z,17.45
2023-05-04T07:35:32.043Z,17.41
2023-05-04T07:50:34.250Z,17.38
2023-05-04T08:05:35.999Z,16.95
2023-05-04T08:20:38.194Z,17.64
2023-05-04T08:35:40.163Z,18.09
2023-05-04T08:50:42.374Z,18.30
2023-05-04T09:05:44.038Z,18.89
2023-05-04T09:20:47.080Z,19.05
2023-05-04T09:35:48.954Z,19.57
2023-05-04T09:50:50.766Z,19.97
2023-05-04T10:05:52.403Z,20.03
2023-05-04T10:20:54.342Z,20.62
2023-05-04T10:35:56.021Z,20.74
2023-05-04T10:50:57.644Z,20.48
2023-05-04T11:05:59.239Z,20.63
2023-05-04T11:21:00.867Z,20.72
2023-05-04T11:36:02.608Z,20.67
2023-05-04T11:51:04.219Z,20.73
2023-05-04T12:06:06.041Z,21.10
2023-05-04T12:21:07.998Z,21.41
2023-05-04T12:36:10.477Z,20.32
2023-05-04T12:51:12.184Z,20.23
2023-05-04T13:06:13.790Z,20.29
2023-05-04T13:21:15.391Z,19.99
2023-05-04T13:36:17.277Z,20.19
2023-05-04T13:51:18.980Z,20.26
2023-05-04T14:06:20.574Z,20.04
2023-05-04T14:21:22.165Z,20.33
2023-05-04T14:36:23.830Z,19.97
2023-05-04T14:51:26.570Z,20.12
2023-05-04T15:06:32.830Z,20.22
2023-05-04T15:21:34.456Z,20.21
2023-05-04T15:36:36.048Z,19.94
2023-05-04T15:51:37.664Z,21.64
2023-05-04T16:06:39.309Z,21.94
2023-05-04T16:21:40.955Z,21.17
2023-05-04T16:36:43.913Z,20.92
2023-05-04T16:51:45.580Z,20.79
2023-05-04T17:06:47.318Z,20.12
2023-05-04T17:21:49.058Z,19.57
2023-05-04T17:36:50.807Z,18.96
2023-05-04T17:51:53.363Z,18.43
2023-05-04T18:06:55.017Z,17.65
2023-05-04T18:21:56.960Z,17.13
2023-05-04T18:36:58.586Z,16.43
2023-05-04T18:52:00.260Z,15.86
2023-05-04T19:07:02.058Z,15.63
2023-05-04T19:22:04.483Z,15.37
2023-05-04T19:37:06.071Z,15.30
2023-05-04T19:52:07.753Z,15.25
2023-05-04T20:07:09.571Z,15.03
2023-05-04T20:22:11.179Z,14.94
2023-05-04T20:37:12.916Z,15.15
2023-05-04T20:52:14.516Z,14.90
2023-05-04T21:07:16.115Z,14.44
2023-05-04T21:22:17.975Z,14.37
2023-05-04T21:37:19.567Z,14.44
2023-05-04T21:52:21.213Z,14.40
2023-05-04T22:07:22.788Z,14.45
2023-05-04T22:22:24.373Z,14.39
2023-05-04T22:37:25.974Z,14.43
2023-05-04T22:52:27.589Z,14.46
2023-05-04T23:07:29.210Z,14.48
2023-05-04T23:22:31.046Z,14.28
2023-05-04T23:37:32.644Z,14.15
2023-05-04T23:52:34.587Z,13.93
